sensor_id;sensor_type;location;lat;lon;timestamp;P1;durP1;ratioP1;P2;durP2;ratioP2
62435;SDS011;48480;50.252;18.848;2022-12-18T00:01:25;30.40;;;14.20;;
62435;SDS011;48480;50.252;18.848;2022-12-18T00:03:53;31.90;;;13.10;;
62435;SDS011;48480;50.252;18.848;2022-12-18T00:06:20;36.00;;;14.50;;
62435;SDS011;48480;50.252;18.848;2022-12-18T00:08:46;31.50;;;13.70;;
62435;SDS011;48480;50.252;18.848;2022-12-18T00:11:16;29.20;;;13.20;;
62435;SDS011;48480;50.252;18.848;2022-12-18T00:13:43;35.50;;;14.30;;
62435;SDS011;48480;50.252;18.848;2022-12-18T00:16:11;33.40;;;14.90;;
62435;SDS011;48480;50.252;18.848;2022-12-18T00:18:39;30.60;;;14.80;;
62435;SDS011;48480;50.252;18.848;2022-12-18T00:21:06;36.10;;;15.50;;
62435;SDS011;48480;50.252;18.848;2022-12-18T00:23:33;41.80;;;16.80;;
62435;SDS011;48480;50.252;18.848;2022-12-18T00:26:04;40.70;;;16.50;;
62435;SDS011;48480;50.252;18.848;2022-12-18T00:28:34;38.20;;;15.10;;
62435;SDS011;48480;50.252;18.848;2022-12-18T00:31:01;29.90;;;12.80;;
62435;SDS011;48480;50.252;18.848;2022-12-18T00:33:30;32.40;;;13.70;;
62435;SDS011;48480;50.252;18.848;2022-12-18T00:36:00;38.30;;;15.90;;
62435;SDS011;48480;50.252;18.848;2022-12-18T00:38:26;33.90;;;13.50;;
62435;SDS011;48480;50.252;18.848;2022-12-18T00:40:52;33.30;;;14.40;;
62435;SDS011;48480;50.252;18.848;2022-12-18T00:43:17;30.60;;;12.50;;
62435;SDS011;48480;50.252;18.848;2022-12-18T00:45:43;32.80;;;15.30;;
62435;SDS011;48480;50.252;18.848;2022-12-18T00:48:08;35.80;;;15.70;;
62435;SDS011;48480;50.252;18.848;2022-12-18T00:50:33;32.20;;;13.60;;
62435;SDS011;48480;50.252;18.848;2022-12-18T00:52:59;30.40;;;12.30;;
62435;SDS011;48480;50.252;18.848;2022-12-18T00:55:24;37.00;;;14.60;;
62435;SDS011;48480;50.252;18.848;2022-12-18T00:57:50;34.20;;;15.10;;
62435;SDS011;48480;50.252;18.848;2022-12-18T01:00:17;34.10;;;14.40;;
62435;SDS011;48480;50.252;18.848;2022-12-18T01:02:43;31.10;;;13.00;;
62435;SDS011;48480;50.252;18.848;2022-12-18T01:05:09;37.60;;;14.50;;
62435;SDS011;48480;50.252;18.848;2022-12-18T01:07:36;27.30;;;12.20;;
62435;SDS011;48480;50.252;18.848;2022-12-18T01:10:01;32.50;;;14.20;;
62435;SDS011;48480;50.252;18.848;2022-12-18T01:12:27;33.30;;;13.90;;
62435;SDS011;48480;50.252;18.848;2022-12-18T01:14:52;26.20;;;11.90;;
62435;SDS011;48480;50.252;18.848;2022-12-18T01:17:18;33.00;;;13.60;;
62435;SDS011;48480;50.252;18.848;2022-12-18T01:19:43;34.30;;;13.80;;
62435;SDS011;48480;50.252;18.848;2022-12-18T01:22:09;34.70;;;14.80;;
62435;SDS011;48480;50.252;18.848;2022-12-18T01:24:34;26.80;;;13.70;;
62435;SDS011;48480;50.252;18.848;2022-12-18T01:27:00;35.10;;;13.10;;
62435;SDS011;48480;50.252;18.848;2022-12-18T01:29:25;35.30;;;15.60;;
62435;SDS011;48480;50.252;18.848;2022-12-18T01:31:50;39.80;;;16.50;;
62435;SDS011;48480;50.252;18.848;2022-12-18T01:34:16;33.90;;;14.70;;
62435;SDS011;48480;50.252;18.848;2022-12-18T01:36:42;35.60;;;13.40;;
62435;SDS011;48480;50.252;18.848;2022-12-18T01:39:09;42.00;;;16.50;;
62435;SDS011;48480;50.252;18.848;2022-12-18T01:41:37;53.20;;;17.70;;
62435;SDS011;48480;50.252;18.848;2022-12-18T01:47:41;47.30;;;17.60;;
62435;SDS011;48480;50.252;18.848;2022-12-18T01:50:10;68.30;;;21.90;;
62435;SDS011;48480;50.252;18.848;2022-12-18T01:52:38;59.60;;;20.00;;
62435;SDS011;48480;50.252;18.848;2022-12-18T01:55:06;51.60;;;19.30;;
62435;SDS011;48480;50.252;18.848;2022-12-18T01:57:33;48.10;;;18.40;;
62435;SDS011;48480;50.252;18.848;2022-12-18T02:00:01;48.30;;;20.20;;
62435;SDS011;48480;50.252;18.848;2022-12-18T02:02:31;71.60;;;20.90;;
62435;SDS011;48480;50.252;18.848;2022-12-18T02:04:57;65.60;;;22.70;;
62435;SDS011;48480;50.252;18.848;2022-12-18T02:10:15;47.10;;;18.70;;
62435;SDS011;48480;50.252;18.848;2022-12-18T02:13:12;42.20;;;19.30;;
62435;SDS011;48480;50.252;18.848;2022-12-18T02:18:58;40.90;;;16.40;;
62435;SDS011;48480;50.252;18.848;2022-12-18T02:21:34;60.30;;;21.70;;
62435;SDS011;48480;50.252;18.848;2022-12-18T02:24:20;46.80;;;18.30;;
62435;SDS011;48480;50.252;18.848;2022-12-18T02:27:06;46.80;;;19.20;;
62435;SDS011;48480;50.252;18.848;2022-12-18T02:31:58;49.30;;;18.40;;
62435;SDS011;48480;50.252;18.848;2022-12-18T02:34:26;40.80;;;18.00;;
62435;SDS011;48480;50.252;18.848;2022-12-18T02:36:58;35.50;;;15.30;;
62435;SDS011;48480;50.252;18.848;2022-12-18T02:39:27;40.80;;;17.40;;
62435;SDS011;48480;50.252;18.848;2022-12-18T02:41:55;38.10;;;17.00;;
62435;SDS011;48480;50.252;18.848;2022-12-18T02:44:22;37.10;;;15.70;;
62435;SDS011;48480;50.252;18.848;2022-12-18T02:46:51;42.60;;;16.40;;
62435;SDS011;48480;50.252;18.848;2022-12-18T02:49:33;37.20;;;15.10;;
62435;SDS011;48480;50.252;18.848;2022-12-18T02:52:17;32.80;;;14.00;;
62435;SDS011;48480;50.252;18.848;2022-12-18T02:57:52;36.20;;;15.50;;
62435;SDS011;48480;50.252;18.848;2022-12-18T03:00:21;36.10;;;15.60;;
62435;SDS011;48480;50.252;18.848;2022-12-18T03:05:33;35.90;;;14.90;;
62435;SDS011;48480;50.252;18.848;2022-12-18T03:08:07;38.90;;;14.50;;
62435;SDS011;48480;50.252;18.848;2022-12-18T03:10:39;34.00;;;15.60;;
62435;SDS011;48480;50.252;18.848;2022-12-18T03:13:26;33.50;;;14.90;;
62435;SDS011;48480;50.252;18.848;2022-12-18T03:15:56;37.60;;;15.80;;
62435;SDS011;48480;50.252;18.848;2022-12-18T03:18:30;34.80;;;15.10;;
62435;SDS011;48480;50.252;18.848;2022-12-18T03:21:05;36.80;;;15.90;;
62435;SDS011;48480;50.252;18.848;2022-12-18T03:23:33;34.50;;;15.90;;
62435;SDS011;48480;50.252;18.848;2022-12-18T03:26:05;36.50;;;14.50;;
62435;SDS011;48480;50.252;18.848;2022-12-18T03:28:35;36.80;;;15.10;;
62435;SDS011;48480;50.252;18.848;2022-12-18T03:31:04;33.20;;;15.30;;
62435;SDS011;48480;50.252;18.848;2022-12-18T03:33:53;36.00;;;14.40;;
62435;SDS011;48480;50.252;18.848;2022-12-18T03:36:20;44.70;;;17.20;;
62435;SDS011;48480;50.252;18.848;2022-12-18T03:38:47;45.60;;;18.00;;
62435;SDS011;48480;50.252;18.848;2022-12-18T03:41:19;38.00;;;17.00;;
62435;SDS011;48480;50.252;18.848;2022-12-18T03:44:13;41.40;;;16.50;;
62435;SDS011;48480;50.252;18.848;2022-12-18T03:52:41;33.60;;;14.70;;
62435;SDS011;48480;50.252;18.848;2022-12-18T03:55:17;34.00;;;15.90;;
62435;SDS011;48480;50.252;18.848;2022-12-18T03:57:46;39.10;;;16.30;;
62435;SDS011;48480;50.252;18.848;2022-12-18T04:00:14;42.10;;;16.20;;
62435;SDS011;48480;50.252;18.848;2022-12-18T04:02:45;43.00;;;17.70;;
62435;SDS011;48480;50.252;18.848;2022-12-18T04:05:16;42.80;;;16.90;;
62435;SDS011;48480;50.252;18.848;2022-12-18T04:07:42;41.50;;;18.00;;
62435;SDS011;48480;50.252;18.848;2022-12-18T04:10:10;43.70;;;16.80;;
62435;SDS011;48480;50.252;18.848;2022-12-18T04:12:37;39.60;;;17.60;;
62435;SDS011;48480;50.252;18.848;2022-12-18T04:15:03;38.80;;;16.60;;
62435;SDS011;48480;50.252;18.848;2022-12-18T04:17:29;37.90;;;17.60;;
62435;SDS011;48480;50.252;18.848;2022-12-18T04:19:55;40.50;;;16.70;;
62435;SDS011;48480;50.252;18.848;2022-12-18T04:22:20;42.10;;;18.10;;
62435;SDS011;48480;50.252;18.848;2022-12-18T04:24:46;43.70;;;19.00;;
62435;SDS011;48480;50.252;18.848;2022-12-18T04:27:11;41.30;;;16.20;;
62435;SDS011;48480;50.252;18.848;2022-12-18T04:29:37;35.70;;;16.10;;
62435;SDS011;48480;50.252;18.848;2022-12-18T04:32:03;37.10;;;16.30;;
62435;SDS011;48480;50.252;18.848;2022-12-18T04:34:28;44.30;;;18.40;;
62435;SDS011;48480;50.252;18.848;2022-12-18T04:36:54;36.40;;;17.00;;
62435;SDS011;48480;50.252;18.848;2022-12-18T04:39:19;42.90;;;18.20;;
62435;SDS011;48480;50.252;18.848;2022-12-18T04:41:45;42.90;;;16.60;;
62435;SDS011;48480;50.252;18.848;2022-12-18T04:44:10;44.40;;;18.50;;
62435;SDS011;48480;50.252;18.848;2022-12-18T04:46:36;46.70;;;18.00;;
62435;SDS011;48480;50.252;18.848;2022-12-18T04:49:01;42.50;;;17.70;;
62435;SDS011;48480;50.252;18.848;2022-12-18T04:51:27;38.80;;;17.40;;
62435;SDS011;48480;50.252;18.848;2022-12-18T04:53:52;36.70;;;15.50;;
62435;SDS011;48480;50.252;18.848;2022-12-18T04:56:18;41.60;;;18.00;;
62435;SDS011;48480;50.252;18.848;2022-12-18T04:58:44;37.70;;;16.20;;
62435;SDS011;48480;50.252;18.848;2022-12-18T05:01:10;47.00;;;19.00;;
62435;SDS011;48480;50.252;18.848;2022-12-18T05:03:38;38.70;;;16.30;;
62435;SDS011;48480;50.252;18.848;2022-12-18T05:06:04;43.20;;;16.60;;
62435;SDS011;48480;50.252;18.848;2022-12-18T05:08:30;42.20;;;18.80;;
62435;SDS011;48480;50.252;18.848;2022-12-18T05:13:30;45.50;;;18.40;;
62435;SDS011;48480;50.252;18.848;2022-12-18T05:15:56;43.20;;;17.50;;
62435;SDS011;48480;50.252;18.848;2022-12-18T05:18:22;43.50;;;17.90;;
62435;SDS011;48480;50.252;18.848;2022-12-18T05:20:52;52.30;;;20.00;;
62435;SDS011;48480;50.252;18.848;2022-12-18T05:23:19;76.30;;;31.30;;
62435;SDS011;48480;50.252;18.848;2022-12-18T05:25:57;53.90;;;24.10;;
62435;SDS011;48480;50.252;18.848;2022-12-18T05:28:24;47.70;;;21.70;;
62435;SDS011;48480;50.252;18.848;2022-12-18T05:30:52;41.40;;;18.80;;
62435;SDS011;48480;50.252;18.848;2022-12-18T05:33:19;53.10;;;21.10;;
62435;SDS011;48480;50.252;18.848;2022-12-18T05:35:53;44.90;;;19.60;;
62435;SDS011;48480;50.252;18.848;2022-12-18T05:38:20;53.40;;;19.80;;
62435;SDS011;48480;50.252;18.848;2022-12-18T05:40:47;41.70;;;18.20;;
62435;SDS011;48480;50.252;18.848;2022-12-18T05:43:14;46.40;;;19.60;;
62435;SDS011;48480;50.252;18.848;2022-12-18T05:45:40;50.00;;;20.50;;
62435;SDS011;48480;50.252;18.848;2022-12-18T05:48:07;44.80;;;18.00;;
62435;SDS011;48480;50.252;18.848;2022-12-18T05:50:34;45.40;;;19.80;;
62435;SDS011;48480;50.252;18.848;2022-12-18T05:53:01;41.20;;;18.60;;
62435;SDS011;48480;50.252;18.848;2022-12-18T05:55:28;42.50;;;17.10;;
62435;SDS011;48480;50.252;18.848;2022-12-18T05:57:53;42.90;;;17.20;;
62435;SDS011;48480;50.252;18.848;2022-12-18T06:00:19;35.90;;;15.00;;
62435;SDS011;48480;50.252;18.848;2022-12-18T06:02:47;46.80;;;17.60;;
62435;SDS011;48480;50.252;18.848;2022-12-18T06:05:13;49.50;;;19.20;;
62435;SDS011;48480;50.252;18.848;2022-12-18T06:07:38;46.90;;;18.10;;
62435;SDS011;48480;50.252;18.848;2022-12-18T06:10:04;46.20;;;18.90;;
62435;SDS011;48480;50.252;18.848;2022-12-18T06:12:29;38.40;;;17.40;;
62435;SDS011;48480;50.252;18.848;2022-12-18T06:14:55;39.80;;;17.10;;
62435;SDS011;48480;50.252;18.848;2022-12-18T06:17:20;42.20;;;18.40;;
62435;SDS011;48480;50.252;18.848;2022-12-18T06:19:46;47.10;;;18.70;;
62435;SDS011;48480;50.252;18.848;2022-12-18T06:22:11;41.20;;;17.00;;
62435;SDS011;48480;50.252;18.848;2022-12-18T06:24:37;42.90;;;17.90;;
62435;SDS011;48480;50.252;18.848;2022-12-18T06:27:02;49.00;;;17.50;;
62435;SDS011;48480;50.252;18.848;2022-12-18T06:29:27;50.60;;;21.00;;
62435;SDS011;48480;50.252;18.848;2022-12-18T06:31:53;43.90;;;17.20;;
62435;SDS011;48480;50.252;18.848;2022-12-18T06:34:18;45.30;;;17.30;;
62435;SDS011;48480;50.252;18.848;2022-12-18T06:36:44;38.90;;;16.20;;
62435;SDS011;48480;50.252;18.848;2022-12-18T06:39:09;47.30;;;17.30;;
62435;SDS011;48480;50.252;18.848;2022-12-18T06:41:34;47.80;;;18.00;;
62435;SDS011;48480;50.252;18.848;2022-12-18T06:44:00;40.30;;;16.80;;
62435;SDS011;48480;50.252;18.848;2022-12-18T06:46:25;45.30;;;18.60;;
62435;SDS011;48480;50.252;18.848;2022-12-18T06:48:51;46.10;;;17.30;;
62435;SDS011;48480;50.252;18.848;2022-12-18T06:51:17;47.60;;;19.50;;
62435;SDS011;48480;50.252;18.848;2022-12-18T06:53:44;48.60;;;18.80;;
62435;SDS011;48480;50.252;18.848;2022-12-18T06:56:09;44.20;;;17.60;;
62435;SDS011;48480;50.252;18.848;2022-12-18T06:58:34;45.20;;;18.50;;
62435;SDS011;48480;50.252;18.848;2022-12-18T07:01:00;48.50;;;18.80;;
62435;SDS011;48480;50.252;18.848;2022-12-18T07:03:27;53.20;;;19.30;;
62435;SDS011;48480;50.252;18.848;2022-12-18T07:05:52;51.40;;;21.00;;
62435;SDS011;48480;50.252;18.848;2022-12-18T07:08:18;46.70;;;19.10;;
62435;SDS011;48480;50.252;18.848;2022-12-18T07:10:43;47.60;;;19.40;;
62435;SDS011;48480;50.252;18.848;2022-12-18T07:13:09;45.80;;;19.20;;
62435;SDS011;48480;50.252;18.848;2022-12-18T07:15:34;49.30;;;19.60;;
62435;SDS011;48480;50.252;18.848;2022-12-18T07:18:00;54.70;;;21.80;;
62435;SDS011;48480;50.252;18.848;2022-12-18T07:20:25;47.40;;;18.70;;
62435;SDS011;48480;50.252;18.848;2022-12-18T07:22:51;55.10;;;20.30;;
62435;SDS011;48480;50.252;18.848;2022-12-18T07:25:16;43.60;;;18.30;;
62435;SDS011;48480;50.252;18.848;2022-12-18T07:27:42;46.00;;;18.00;;
62435;SDS011;48480;50.252;18.848;2022-12-18T07:30:07;54.80;;;21.10;;
62435;SDS011;48480;50.252;18.848;2022-12-18T07:32:34;49.00;;;20.80;;
62435;SDS011;48480;50.252;18.848;2022-12-18T07:34:59;49.20;;;20.90;;
62435;SDS011;48480;50.252;18.848;2022-12-18T07:37:25;51.90;;;19.80;;
62435;SDS011;48480;50.252;18.848;2022-12-18T07:39:50;55.20;;;21.20;;
62435;SDS011;48480;50.252;18.848;2022-12-18T07:42:15;53.00;;;21.10;;
62435;SDS011;48480;50.252;18.848;2022-12-18T07:44:56;52.10;;;20.50;;
62435;SDS011;48480;50.252;18.848;2022-12-18T07:47:22;48.80;;;19.50;;
62435;SDS011;48480;50.252;18.848;2022-12-18T07:49:48;43.00;;;19.30;;
62435;SDS011;48480;50.252;18.848;2022-12-18T07:52:14;49.90;;;21.80;;
62435;SDS011;48480;50.252;18.848;2022-12-18T07:54:39;53.90;;;20.50;;
62435;SDS011;48480;50.252;18.848;2022-12-18T07:57:05;50.30;;;24.00;;
62435;SDS011;48480;50.252;18.848;2022-12-18T07:59:31;59.80;;;23.50;;
62435;SDS011;48480;50.252;18.848;2022-12-18T08:01:56;54.50;;;23.00;;
62435;SDS011;48480;50.252;18.848;2022-12-18T08:04:22;56.40;;;22.10;;
62435;SDS011;48480;50.252;18.848;2022-12-18T08:06:47;51.40;;;21.20;;
62435;SDS011;48480;50.252;18.848;2022-12-18T08:09:12;46.90;;;22.80;;
62435;SDS011;48480;50.252;18.848;2022-12-18T08:11:38;63.50;;;24.10;;
62435;SDS011;48480;50.252;18.848;2022-12-18T08:14:03;61.00;;;24.00;;
62435;SDS011;48480;50.252;18.848;2022-12-18T08:16:29;61.20;;;24.30;;
62435;SDS011;48480;50.252;18.848;2022-12-18T08:18:55;57.10;;;23.40;;
62435;SDS011;48480;50.252;18.848;2022-12-18T08:21:22;62.60;;;26.20;;
62435;SDS011;48480;50.252;18.848;2022-12-18T08:23:50;59.20;;;25.30;;
62435;SDS011;48480;50.252;18.848;2022-12-18T08:26:16;62.30;;;26.40;;
62435;SDS011;48480;50.252;18.848;2022-12-18T08:28:42;68.70;;;26.00;;
62435;SDS011;48480;50.252;18.848;2022-12-18T08:31:08;73.80;;;28.50;;
62435;SDS011;48480;50.252;18.848;2022-12-18T08:33:35;68.50;;;27.60;;
62435;SDS011;48480;50.252;18.848;2022-12-18T08:36:03;70.10;;;26.70;;
62435;SDS011;48480;50.252;18.848;2022-12-18T08:38:29;68.70;;;26.10;;
62435;SDS011;48480;50.252;18.848;2022-12-18T08:40:58;63.30;;;28.20;;
62435;SDS011;48480;50.252;18.848;2022-12-18T08:43:29;56.50;;;25.00;;
62435;SDS011;48480;50.252;18.848;2022-12-18T08:46:13;62.30;;;26.90;;
62435;SDS011;48480;50.252;18.848;2022-12-18T08:48:42;65.90;;;27.90;;
62435;SDS011;48480;50.252;18.848;2022-12-18T08:51:07;61.90;;;29.80;;
62435;SDS011;48480;50.252;18.848;2022-12-18T08:53:35;64.80;;;27.30;;
62435;SDS011;48480;50.252;18.848;2022-12-18T08:56:01;63.60;;;26.80;;
62435;SDS011;48480;50.252;18.848;2022-12-18T08:58:27;57.10;;;24.00;;
62435;SDS011;48480;50.252;18.848;2022-12-18T09:00:53;54.20;;;25.40;;
62435;SDS011;48480;50.252;18.848;2022-12-18T09:03:19;62.00;;;25.80;;
62435;SDS011;48480;50.252;18.848;2022-12-18T09:05:47;60.00;;;25.80;;
62435;SDS011;48480;50.252;18.848;2022-12-18T09:08:14;65.00;;;27.60;;
62435;SDS011;48480;50.252;18.848;2022-12-18T09:10:46;62.20;;;25.70;;
62435;SDS011;48480;50.252;18.848;2022-12-18T09:13:13;47.70;;;21.50;;
62435;SDS011;48480;50.252;18.848;2022-12-18T09:15:41;100.90;;;32.90;;
62435;SDS011;48480;50.252;18.848;2022-12-18T09:18:08;106.90;;;33.00;;
62435;SDS011;48480;50.252;18.848;2022-12-18T09:20:35;71.00;;;25.60;;
62435;SDS011;48480;50.252;18.848;2022-12-18T09:23:01;60.20;;;23.30;;
62435;SDS011;48480;50.252;18.848;2022-12-18T09:25:28;82.50;;;28.60;;
62435;SDS011;48480;50.252;18.848;2022-12-18T09:28:00;59.60;;;25.10;;
62435;SDS011;48480;50.252;18.848;2022-12-18T09:30:30;62.10;;;25.50;;
62435;SDS011;48480;50.252;18.848;2022-12-18T09:32:58;53.00;;;22.40;;
62435;SDS011;48480;50.252;18.848;2022-12-18T09:35:24;47.30;;;21.70;;
62435;SDS011;48480;50.252;18.848;2022-12-18T09:37:49;47.20;;;20.60;;
62435;SDS011;48480;50.252;18.848;2022-12-18T09:40:16;49.10;;;19.90;;
62435;SDS011;48480;50.252;18.848;2022-12-18T09:42:49;51.70;;;21.00;;
62435;SDS011;48480;50.252;18.848;2022-12-18T09:45:19;42.30;;;19.30;;
62435;SDS011;48480;50.252;18.848;2022-12-18T09:47:48;47.70;;;20.80;;
62435;SDS011;48480;50.252;18.848;2022-12-18T09:50:30;53.50;;;23.80;;
62435;SDS011;48480;50.252;18.848;2022-12-18T09:53:02;53.40;;;23.60;;
62435;SDS011;48480;50.252;18.848;2022-12-18T09:55:40;48.50;;;22.90;;
62435;SDS011;48480;50.252;18.848;2022-12-18T09:58:16;41.20;;;20.30;;
62435;SDS011;48480;50.252;18.848;2022-12-18T10:00:54;47.80;;;21.30;;
62435;SDS011;48480;50.252;18.848;2022-12-18T10:03:20;57.70;;;26.10;;
62435;SDS011;48480;50.252;18.848;2022-12-18T10:11:43;52.90;;;23.70;;
62435;SDS011;48480;50.252;18.848;2022-12-18T10:20:10;47.30;;;21.80;;
62435;SDS011;48480;50.252;18.848;2022-12-18T10:25:31;47.10;;;22.80;;
62435;SDS011;48480;50.252;18.848;2022-12-18T10:28:00;62.00;;;27.10;;
62435;SDS011;48480;50.252;18.848;2022-12-18T10:30:35;53.30;;;24.40;;
62435;SDS011;48480;50.252;18.848;2022-12-18T10:33:04;54.70;;;25.30;;
62435;SDS011;48480;50.252;18.848;2022-12-18T10:35:29;58.60;;;24.80;;
62435;SDS011;48480;50.252;18.848;2022-12-18T10:38:02;48.20;;;22.60;;
62435;SDS011;48480;50.252;18.848;2022-12-18T10:40:30;51.60;;;23.20;;
62435;SDS011;48480;50.252;18.848;2022-12-18T10:43:09;59.10;;;26.60;;
62435;SDS011;48480;50.252;18.848;2022-12-18T10:45:37;55.90;;;25.70;;
62435;SDS011;48480;50.252;18.848;2022-12-18T10:48:02;52.50;;;23.90;;
62435;SDS011;48480;50.252;18.848;2022-12-18T10:50:30;53.10;;;22.00;;
62435;SDS011;48480;50.252;18.848;2022-12-18T10:52:58;46.30;;;21.30;;
62435;SDS011;48480;50.252;18.848;2022-12-18T10:55:38;45.70;;;20.40;;
62435;SDS011;48480;50.252;18.848;2022-12-18T11:03:37;47.90;;;20.80;;
62435;SDS011;48480;50.252;18.848;2022-12-18T11:06:09;44.30;;;19.80;;
62435;SDS011;48480;50.252;18.848;2022-12-18T11:08:41;46.40;;;21.10;;
62435;SDS011;48480;50.252;18.848;2022-12-18T11:11:19;48.40;;;22.00;;
62435;SDS011;48480;50.252;18.848;2022-12-18T11:14:02;51.20;;;22.10;;
62435;SDS011;48480;50.252;18.848;2022-12-18T11:16:49;47.20;;;21.70;;
62435;SDS011;48480;50.252;18.848;2022-12-18T11:19:25;51.10;;;21.30;;
62435;SDS011;48480;50.252;18.848;2022-12-18T11:21:51;42.10;;;19.60;;
62435;SDS011;48480;50.252;18.848;2022-12-18T11:24:29;50.20;;;21.30;;
62435;SDS011;48480;50.252;18.848;2022-12-18T11:29:36;46.10;;;18.70;;
62435;SDS011;48480;50.252;18.848;2022-12-18T11:34:49;39.20;;;17.30;;
62435;SDS011;48480;50.252;18.848;2022-12-18T11:37:19;45.70;;;19.80;;
62435;SDS011;48480;50.252;18.848;2022-12-18T11:39:55;43.10;;;20.00;;
62435;SDS011;48480;50.252;18.848;2022-12-18T11:42:38;45.50;;;19.70;;
62435;SDS011;48480;50.252;18.848;2022-12-18T11:50:51;48.10;;;21.20;;
62435;SDS011;48480;50.252;18.848;2022-12-18T11:53:18;46.90;;;20.70;;
62435;SDS011;48480;50.252;18.848;2022-12-18T12:01:20;33.20;;;15.30;;
62435;SDS011;48480;50.252;18.848;2022-12-18T12:09:09;41.30;;;19.30;;
62435;SDS011;48480;50.252;18.848;2022-12-18T12:20:37;36.00;;;17.30;;
62435;SDS011;48480;50.252;18.848;2022-12-18T12:23:15;33.30;;;14.70;;
62435;SDS011;48480;50.252;18.848;2022-12-18T12:25:49;36.50;;;16.90;;
62435;SDS011;48480;50.252;18.848;2022-12-18T12:33:58;37.90;;;16.90;;
62435;SDS011;48480;50.252;18.848;2022-12-18T12:36:38;33.00;;;15.50;;
62435;SDS011;48480;50.252;18.848;2022-12-18T12:39:36;30.00;;;15.10;;
62435;SDS011;48480;50.252;18.848;2022-12-18T12:42:05;53.30;;;22.20;;
62435;SDS011;48480;50.252;18.848;2022-12-18T12:44:58;49.10;;;19.90;;
62435;SDS011;48480;50.252;18.848;2022-12-18T12:47:34;43.70;;;17.90;;
62435;SDS011;48480;50.252;18.848;2022-12-18T12:50:06;37.60;;;16.00;;
62435;SDS011;48480;50.252;18.848;2022-12-18T12:52:41;37.00;;;15.40;;
62435;SDS011;48480;50.252;18.848;2022-12-18T12:55:21;38.90;;;17.20;;
62435;SDS011;48480;50.252;18.848;2022-12-18T13:01:08;37.20;;;15.50;;
62435;SDS011;48480;50.252;18.848;2022-12-18T13:03:57;31.40;;;16.80;;
62435;SDS011;48480;50.252;18.848;2022-12-18T13:06:45;29.20;;;14.70;;
62435;SDS011;48480;50.252;18.848;2022-12-18T13:09:19;35.10;;;17.50;;
62435;SDS011;48480;50.252;18.848;2022-12-18T13:11:45;37.00;;;17.70;;
62435;SDS011;48480;50.252;18.848;2022-12-18T13:19:42;37.80;;;18.30;;
62435;SDS011;48480;50.252;18.848;2022-12-18T13:22:24;37.90;;;16.80;;
62435;SDS011;48480;50.252;18.848;2022-12-18T13:24:58;31.80;;;14.70;;
62435;SDS011;48480;50.252;18.848;2022-12-18T13:27:45;40.40;;;16.30;;
62435;SDS011;48480;50.252;18.848;2022-12-18T13:33:30;29.20;;;13.60;;
62435;SDS011;48480;50.252;18.848;2022-12-18T13:36:03;32.10;;;14.60;;
62435;SDS011;48480;50.252;18.848;2022-12-18T13:38:34;32.30;;;14.80;;
62435;SDS011;48480;50.252;18.848;2022-12-18T13:41:03;37.20;;;16.00;;
62435;SDS011;48480;50.252;18.848;2022-12-18T13:43:47;31.70;;;13.20;;
62435;SDS011;48480;50.252;18.848;2022-12-18T13:49:19;33.80;;;16.10;;
62435;SDS011;48480;50.252;18.848;2022-12-18T13:51:47;30.40;;;14.30;;
62435;SDS011;48480;50.252;18.848;2022-12-18T13:56:55;35.50;;;15.20;;
62435;SDS011;48480;50.252;18.848;2022-12-18T13:59:22;34.20;;;16.20;;
62435;SDS011;48480;50.252;18.848;2022-12-18T14:04:20;36.10;;;15.50;;
62435;SDS011;48480;50.252;18.848;2022-12-18T14:06:57;34.50;;;16.40;;
62435;SDS011;48480;50.252;18.848;2022-12-18T14:09:29;35.80;;;15.40;;
62435;SDS011;48480;50.252;18.848;2022-12-18T14:11:56;44.00;;;18.30;;
62435;SDS011;48480;50.252;18.848;2022-12-18T14:14:42;33.50;;;14.20;;
62435;SDS011;48480;50.252;18.848;2022-12-18T14:17:12;41.90;;;18.00;;
62435;SDS011;48480;50.252;18.848;2022-12-18T14:19:45;41.50;;;16.40;;
62435;SDS011;48480;50.252;18.848;2022-12-18T14:22:21;44.20;;;16.60;;
62435;SDS011;48480;50.252;18.848;2022-12-18T14:27:46;42.60;;;18.20;;
62435;SDS011;48480;50.252;18.848;2022-12-18T14:35:32;40.70;;;17.20;;
62435;SDS011;48480;50.252;18.848;2022-12-18T14:38:09;39.00;;;16.60;;
62435;SDS011;48480;50.252;18.848;2022-12-18T14:40:41;35.60;;;15.30;;
62435;SDS011;48480;50.252;18.848;2022-12-18T14:43:11;38.50;;;17.50;;
62435;SDS011;48480;50.252;18.848;2022-12-18T14:45:38;50.50;;;20.60;;
62435;SDS011;48480;50.252;18.848;2022-12-18T14:48:52;45.90;;;18.20;;
62435;SDS011;48480;50.252;18.848;2022-12-18T14:53:34;44.40;;;21.50;;
62435;SDS011;48480;50.252;18.848;2022-12-18T14:58:45;49.70;;;19.90;;
62435;SDS011;48480;50.252;18.848;2022-12-18T15:04:00;49.20;;;20.90;;
62435;SDS011;48480;50.252;18.848;2022-12-18T15:06:29;48.20;;;20.90;;
62435;SDS011;48480;50.252;18.848;2022-12-18T15:08:59;57.30;;;23.70;;
62435;SDS011;48480;50.252;18.848;2022-12-18T15:11:27;61.90;;;32.20;;
62435;SDS011;48480;50.252;18.848;2022-12-18T15:13:57;59.50;;;24.00;;
62435;SDS011;48480;50.252;18.848;2022-12-18T15:16:24;49.10;;;21.60;;
62435;SDS011;48480;50.252;18.848;2022-12-18T15:18:49;64.10;;;25.20;;
62435;SDS011;48480;50.252;18.848;2022-12-18T15:21:18;85.70;;;32.10;;
62435;SDS011;48480;50.252;18.848;2022-12-18T15:26:18;68.50;;;29.10;;
62435;SDS011;48480;50.252;18.848;2022-12-18T15:28:47;56.30;;;24.40;;
62435;SDS011;48480;50.252;18.848;2022-12-18T15:36:12;44.70;;;19.90;;
62435;SDS011;48480;50.252;18.848;2022-12-18T15:38:39;43.80;;;19.70;;
62435;SDS011;48480;50.252;18.848;2022-12-18T15:41:04;57.80;;;24.20;;
62435;SDS011;48480;50.252;18.848;2022-12-18T15:43:32;39.60;;;19.40;;
62435;SDS011;48480;50.252;18.848;2022-12-18T15:46:02;50.70;;;23.50;;
62435;SDS011;48480;50.252;18.848;2022-12-18T15:48:28;50.70;;;23.50;;
62435;SDS011;48480;50.252;18.848;2022-12-18T15:50:54;47.00;;;20.80;;
62435;SDS011;48480;50.252;18.848;2022-12-18T15:53:24;48.10;;;22.80;;
62435;SDS011;48480;50.252;18.848;2022-12-18T15:55:52;57.00;;;25.70;;
62435;SDS011;48480;50.252;18.848;2022-12-18T15:58:37;54.80;;;24.20;;
62435;SDS011;48480;50.252;18.848;2022-12-18T16:01:03;56.50;;;22.00;;
62435;SDS011;48480;50.252;18.848;2022-12-18T16:03:29;50.80;;;21.30;;
62435;SDS011;48480;50.252;18.848;2022-12-18T16:05:55;49.20;;;22.50;;
62435;SDS011;48480;50.252;18.848;2022-12-18T16:08:20;49.20;;;23.20;;
62435;SDS011;48480;50.252;18.848;2022-12-18T16:10:45;49.10;;;22.10;;
62435;SDS011;48480;50.252;18.848;2022-12-18T16:13:11;56.60;;;25.60;;
62435;SDS011;48480;50.252;18.848;2022-12-18T16:15:40;48.60;;;22.50;;
62435;SDS011;48480;50.252;18.848;2022-12-18T16:18:06;51.20;;;21.50;;
62435;SDS011;48480;50.252;18.848;2022-12-18T16:20:31;54.00;;;24.10;;
62435;SDS011;48480;50.252;18.848;2022-12-18T16:22:56;54.00;;;23.30;;
62435;SDS011;48480;50.252;18.848;2022-12-18T16:25:23;52.40;;;24.10;;
62435;SDS011;48480;50.252;18.848;2022-12-18T16:27:50;55.10;;;25.80;;